Overview Statistics Trail Chart Weather Telemetry Raw packets
 

This is the latest recevied weather packets stored in our database for station/object NK7E-2. If no packets are shown the sender has not sent any weather packets the latest 10 day(s).

<< 37 38 39 40 41 42 43 >>
Time Temp. Humidity Pressure Rain* Wind** Luminosity Snow
1787887816 32.78° C 28% 1029.5 hPa 0 mm - - -
1787887215 32.78° C 28% 1028.9 hPa 0 mm - - -
1787886616 32.78° C 28% 1028.2 hPa 0 mm - - -
1787886015 32.78° C 28% 1028.7 hPa 0 mm - - -
1787885416 33.33° C 29% 1028.7 hPa 0 mm - - -
1787884815 33.33° C 28% 1027.9 hPa 0 mm - - -
1787884215 33.33° C 28% 1027.8 hPa 0 mm - - -
1787883615 32.78° C 29% 1027.6 hPa 0 mm - - -
1787883015 32.78° C 29% 1027.2 hPa 0 mm - - -
1787882417 32.22° C 31% 1026.5 hPa 0 mm - - -
1787881817 32.22° C 32% 1026.2 hPa 0 mm - - -
1787881217 32.78° C 32% 1026.6 hPa 0 mm - - -
1787880617 33.33° C 29% 1026.5 hPa 0 mm - - -
1787880017 35° C 25% 1026.9 hPa 0 mm - - -
1787879417 36.11° C 23% 1026.4 hPa 0 mm - - -
1787878817 36.11° C 23% 1026.2 hPa 0 mm - - -
1787878217 36.67° C 22% 1026.5 hPa 0 mm - - -
1787877617 36.67° C 21% 1026.3 hPa 0 mm - - -
1787877017 37.22° C 21% 1026.2 hPa 0 mm - - -
1787876417 37.22° C 20% 1026.1 hPa 0 mm - - -
1787875817 37.78° C 20% 1026.1 hPa 0 mm - - -
1787875217 38.89° C 18% 1026.2 hPa 0 mm - - -
1787874617 38.89° C 18% 1026.3 hPa 0 mm - - -
1787874017 39.44° C 17% 1026.5 hPa 0 mm - - -
1787873417 38.89° C 18% 1026.5 hPa 0 mm - - -

* Rain latest hour (hover to see other rain measurements)
** Current wind speed in m/s (hover to see current wind gust speed)